KLTS/LTS METAR and TAF weather

Enter ICAO airport designator
Station Type Date Time Source
KLTS METAR 2019/08/18 07:56 UTC NOAA

KLTS 180756Z AUTO 15011KT 10SM CLR 24/18 A2979 RMK AO2 SLP068 T02380175 $


Station Type Date Time Source
KLTS Decoded METAR 2019/08/18 07:56 UTC NOAA

Station name not available
Aug 18, 2019 - 03:56 AM EDT / 2019.08.18 0756 UTC
Wind: from the SSE (150 degrees) at 13 MPH (11 KT):0
Visibility: 10 mile(s):0
Sky conditions: clear
Temperature: 74.8 F (23.8 C)
Dew Point: 63.5 F (17.5 C)
Relative Humidity: 67%
Pressure (altimeter): 29.79 in. Hg (1008 hPa)
ob: KLTS 180756Z AUTO 15011KT 10SM CLR 24/18 A2979 RMK AO2 SLP068 T02380175
cycle: 8

Station Type Date Time Source
KLTS TAF 2019/08/17 06:33 UTC NOAA

TAF
AMD KLTS 170610Z 1706/1807 30012KT 9999 FEW100 WS015/18040KT QNH2979INS
BECMG 1708/1709 21005KT 9999 SCT080 520102 QNH2976INS
BECMG 1717/1718 19010G15KT 9999 FEW100 BKN160 QNH2968INS
BECMG 1720/1721 19010G15KT 9999 SCT100 BKN150 QNH2967INS
BECMG 1723/1724 17010G15KT 9999 VCSH BKN100 QNH2966INS
BECMG 1803/1804 16012KT 9999 NSW SCT090 BKN200 510102 QNH2971INS TX40/1721Z TN25/1712Z LAST NO
AMDS AFT 1707 NEXT 1909

Example: see airport list